A Professional Fixed Based Operation at CYSJ - UNICOM: 123.3

Atlantic Flight Centre

The Atlantic Flight Centre welcomes all travellers to our professional full-service FBO. Located at the Saint John Airport (CYSJ) close to the shores of the famous Bay of Fundy in Saint John, New Brunswick, we take pride in our warm hospitality and professional staff who are here to assist you with all of your aviation needs.

Our Promise

To provide professional excellence in aircraft maintenance by experienced, skilled and dedicated Aircraft Maintenance Engineers (AME – M1 and M2) and Technicians using the highest quality products at the best possible price.

To provide a clean, comfortable lounge and fully equipped flight planning room for visiting pilots and passengers as well as courteous and friendly concierge services as needed.

Atlantic Flight Centre is an Approved Canada Customs Border Agency Customs Clearance Facility

Saint John Airport

About The Airport

The Saint John Airport (CYSJ) serves Greater Saint John and southwestern New Brunswick with daily direct flights to Toronto, Montreal and Halifax and connecting flights to Ottawa. The Saint John Airport is about a 20-minute drive from the city centre, just 26-KM, on Loch Lomond Road, Route 111 East.

CYSJ Aviation WX

METAR

CYSJ 141405Z 09014G22KT 070V130 3SM RA BR OVC006 04/03 A3007 RMK SF8 PRESFR SLP189

Weather Links

Saint John Flight Services
(506) 646-7225
Halifax Weather Centre

1-866-992-7433
Radar Weather

METAR